Terminal Aerodrome Forecast
Issued by NWS Flagstaff, AZ

Home | Current Version | Previous Version | Text Only | Print | Product List | Glossary On
Versions: 1 2 3 4 5 6 7 8 9 10 11 12 13 14 15
625
FTUS45 KFGZ 162326
TAFFLG
TAF
KFLG 162326Z 1700/1724 23009G14KT P6SM FEW100
     FM170200 VRB02KT P6SM FEW100
     FM171800 22009KT P6SM FEW120=

USA.gov is the U.S. government's official web portal to all federal, state and local government web resources and services.